createdAt,value
2018-02-21T00:00:52.711Z,14.03
2018-02-21T00:03:21.044Z,13.20
2018-02-21T00:05:48.579Z,13.30
2018-02-21T00:08:16.148Z,12.40
2018-02-21T00:10:43.711Z,13.67
2018-02-21T00:13:11.256Z,12.97
2018-02-21T00:15:38.802Z,13.03
2018-02-21T00:18:06.351Z,12.30
2018-02-21T00:20:34.667Z,13.50
2018-02-21T00:23:02.207Z,13.03
2018-02-21T00:25:29.764Z,12.60
2018-02-21T00:27:57.295Z,12.57
2018-02-21T00:30:24.859Z,12.50
2018-02-21T00:32:53.380Z,13.50
2018-02-21T00:35:20.946Z,13.57
2018-02-21T00:37:48.501Z,13.57
2018-02-21T00:40:16.081Z,13.00
2018-02-21T00:42:43.622Z,12.57
2018-02-21T00:45:11.156Z,12.93
2018-02-21T00:47:39.474Z,12.57
2018-02-21T00:50:07.015Z,13.57
2018-02-21T00:52:34.571Z,12.40
2018-02-21T00:55:02.103Z,12.63
2018-02-21T00:57:30.647Z,11.53
2018-02-21T00:59:58.197Z,12.23
2018-02-21T01:02:25.755Z,13.20
2018-02-21T01:04:53.295Z,12.90
2018-02-21T01:07:20.851Z,14.13
2018-02-21T01:09:48.392Z,11.73
2018-02-21T01:12:16.734Z,12.73
2018-02-21T01:14:44.280Z,12.77
2018-02-21T01:17:11.823Z,12.33
2018-02-21T01:19:39.376Z,12.63
2018-02-21T01:22:06.919Z,12.27
2018-02-21T01:24:35.241Z,12.23
2018-02-21T01:27:02.779Z,12.23
2018-02-21T01:29:30.331Z,12.43
2018-02-21T01:31:57.867Z,12.73
2018-02-21T01:34:26.200Z,11.50
2018-02-21T01:36:53.731Z,12.90
2018-02-21T01:39:21.335Z,11.50
2018-02-21T01:41:48.873Z,10.50
2018-02-21T01:44:16.422Z,12.27
2018-02-21T01:46:43.967Z,10.87
2018-02-21T01:49:11.525Z,11.43
2018-02-21T01:51:39.823Z,12.00
2018-02-21T01:54:07.382Z,10.97
2018-02-21T01:56:34.938Z,12.00
2018-02-21T01:59:02.470Z,12.57
2018-02-21T02:01:30.792Z,11.53
2018-02-21T02:03:58.332Z,11.40
2018-02-21T02:06:25.888Z,12.20
2018-02-21T02:08:53.423Z,10.70
2018-02-21T02:11:21.761Z,11.53
2018-02-21T02:13:49.295Z,10.50
2018-02-21T02:16:16.847Z,10.53
2018-02-21T02:18:45.149Z,10.37
2018-02-21T02:21:12.749Z,11.83
2018-02-21T02:23:40.306Z,11.10
2018-02-21T02:26:07.864Z,11.47
2018-02-21T02:28:35.432Z,10.50
2018-02-21T02:31:02.981Z,11.23
2018-02-21T02:33:30.545Z,12.07
2018-02-21T02:35:58.092Z,11.53
2018-02-21T02:38:37.436Z,11.40
2018-02-21T02:41:04.980Z,10.13
2018-02-21T02:43:32.537Z,11.07
2018-02-21T02:46:00.076Z,11.33
2018-02-21T02:48:27.632Z,11.03
2018-02-21T02:50:55.179Z,11.10
2018-02-21T02:53:23.502Z,9.90
2018-02-21T02:55:51.056Z,10.20
2018-02-21T02:58:18.619Z,11.60
2018-02-21T03:00:46.171Z,10.90
2018-02-21T03:03:13.741Z,11.70
2018-02-21T03:05:41.281Z,10.57
2018-02-21T03:08:08.834Z,11.60
2018-02-21T03:10:36.390Z,10.63
2018-02-21T03:13:04.701Z,10.43
2018-02-21T03:15:32.263Z,11.20
2018-02-21T03:17:59.803Z,10.67
2018-02-21T03:20:27.358Z,10.80
2018-02-21T03:22:54.904Z,11.00
2018-02-21T03:25:23.232Z,9.83
2018-02-21T03:27:50.795Z,9.63
2018-02-21T03:30:18.355Z,9.67
2018-02-21T03:32:45.888Z,10.37
2018-02-21T03:35:13.468Z,10.03
2018-02-21T03:37:41.026Z,11.43
2018-02-21T03:40:08.578Z,10.87
2018-02-21T03:42:36.131Z,10.27
2018-02-21T03:45:03.667Z,11.20
2018-02-21T03:47:31.980Z,10.27
2018-02-21T03:49:59.511Z,10.90
2018-02-21T03:52:27.831Z,11.07
2018-02-21T03:54:55.362Z,9.73
2018-02-21T03:57:22.911Z,9.33
2018-02-21T03:59:51.217Z,10.00
2018-02-21T04:02:18.784Z,10.50
2018-02-21T04:04:46.320Z,10.47
2018-02-21T04:07:13.863Z,9.87
2018-02-21T04:09:42.169Z,10.00
2018-02-21T04:12:09.723Z,9.87
2018-02-21T04:14:37.260Z,9.57
2018-02-21T04:17:05.576Z,8.83
2018-02-21T04:19:33.115Z,10.17
2018-02-21T04:22:00.642Z,8.73
2018-02-21T04:24:28.190Z,10.80
2018-02-21T04:26:55.738Z,9.57
2018-02-21T04:29:23.291Z,8.97
2018-02-21T04:31:50.838Z,8.73
2018-02-21T04:34:18.396Z,10.20
2018-02-21T04:36:45.935Z,9.57
2018-02-21T04:39:13.505Z,9.53
2018-02-21T04:41:41.048Z,9.80
2018-02-21T04:44:09.374Z,9.33
2018-02-21T04:46:36.904Z,8.73
2018-02-21T04:51:38.353Z,9.90
2018-02-21T04:54:06.701Z,9.27
2018-02-21T04:56:37.064Z,11.10
2018-02-21T04:59:04.607Z,9.07
2018-02-21T05:01:32.932Z,9.40
2018-02-21T05:04:00.459Z,9.07
2018-02-21T05:06:28.788Z,11.83
2018-02-21T05:08:56.317Z,8.93
2018-02-21T05:11:23.881Z,9.70
2018-02-21T05:13:51.415Z,10.20
2018-02-21T05:16:19.727Z,9.27
2018-02-21T05:18:47.260Z,9.33
2018-02-21T05:21:15.578Z,9.53
2018-02-21T05:23:43.118Z,9.00
2018-02-21T05:26:10.690Z,9.13
2018-02-21T05:28:38.239Z,9.57
2018-02-21T05:31:05.795Z,10.00
2018-02-21T05:33:33.328Z,10.20
2018-02-21T05:36:01.659Z,8.83
2018-02-21T05:38:29.212Z,8.77
2018-02-21T05:40:56.751Z,8.60
2018-02-21T05:43:24.313Z,9.43
2018-02-21T05:45:51.856Z,9.07
2018-02-21T05:48:20.175Z,9.20
2018-02-21T05:50:47.703Z,8.73
2018-02-21T05:53:15.253Z,8.60
2018-02-21T05:55:43.567Z,10.47
2018-02-21T05:58:11.122Z,8.90
2018-02-21T06:00:38.651Z,8.87
2018-02-21T06:03:06.968Z,9.00
2018-02-21T06:05:34.520Z,9.70
2018-02-21T06:08:02.092Z,9.37
2018-02-21T06:10:29.637Z,8.67
2018-02-21T06:12:57.225Z,10.30
2018-02-21T06:15:24.769Z,8.87
2018-02-21T06:17:52.312Z,9.73
2018-02-21T06:20:19.867Z,9.20
2018-02-21T06:22:47.407Z,9.17
2018-02-21T06:25:15.729Z,9.37
2018-02-21T06:27:43.350Z,8.40
2018-02-21T06:30:11.671Z,9.30
2018-02-21T06:32:39.235Z,8.53
2018-02-21T06:35:06.804Z,9.60
2018-02-21T06:37:34.336Z,9.27
2018-02-21T06:40:01.909Z,8.30
2018-02-21T06:42:29.457Z,9.03
2018-02-21T06:44:57.012Z,8.43
2018-02-21T06:47:24.547Z,9.77
2018-02-21T06:49:52.877Z,9.23
2018-02-21T06:52:20.411Z,9.13
2018-02-21T06:54:47.982Z,8.90
2018-02-21T06:57:15.541Z,8.20
2018-02-21T06:59:43.103Z,9.60
2018-02-21T07:02:12.312Z,8.20
2018-02-21T07:04:39.856Z,8.27
2018-02-21T07:07:07.403Z,9.20
2018-02-21T07:09:35.707Z,8.43
2018-02-21T07:12:03.336Z,9.70
2018-02-21T07:14:31.647Z,8.10
2018-02-21T07:16:59.202Z,7.70
2018-02-21T07:19:26.735Z,9.77
2018-02-21T07:21:55.113Z,8.37
2018-02-21T07:24:23.416Z,8.83
2018-02-21T07:26:50.983Z,9.60
2018-02-21T07:29:18.600Z,8.93
2018-02-21T07:31:46.184Z,9.10
2018-02-21T07:34:14.492Z,8.40
2018-02-21T07:36:42.079Z,8.10
2018-02-21T07:39:09.637Z,8.73
2018-02-21T07:41:37.177Z,8.73
2018-02-21T07:44:04.755Z,7.90
2018-02-21T07:46:32.279Z,8.70
2018-02-21T07:48:59.865Z,8.60
2018-02-21T07:51:27.409Z,8.13
2018-02-21T07:53:54.950Z,8.70
2018-02-21T07:56:23.267Z,8.20
2018-02-21T07:58:50.820Z,8.83
2018-02-21T08:01:18.344Z,7.80
2018-02-21T08:03:46.656Z,7.93
2018-02-21T08:06:14.187Z,8.10
2018-02-21T08:08:41.744Z,8.00
2018-02-21T08:11:10.059Z,8.40
2018-02-21T08:13:37.609Z,8.20
2018-02-21T08:16:05.145Z,7.60
2018-02-21T08:18:33.473Z,8.90
2018-02-21T08:21:00.999Z,8.07
2018-02-21T08:23:28.574Z,8.43
2018-02-21T08:25:56.121Z,8.70
2018-02-21T08:28:23.716Z,8.83
2018-02-21T08:30:51.218Z,8.03
2018-02-21T08:33:19.523Z,9.00
2018-02-21T08:35:47.071Z,7.93
2018-02-21T08:38:14.604Z,7.70
2018-02-21T08:40:42.187Z,9.00
2018-02-21T08:43:10.488Z,8.50
2018-02-21T08:45:38.033Z,8.07
2018-02-21T08:48:05.567Z,7.83
2018-02-21T08:50:33.891Z,8.13
2018-02-21T08:53:01.438Z,8.27
2018-02-21T08:55:28.979Z,7.97
2018-02-21T08:57:57.353Z,8.60
2018-02-21T09:00:24.876Z,8.60
2018-02-21T09:02:52.402Z,7.80
2018-02-21T09:05:19.992Z,7.50
2018-02-21T09:07:47.529Z,8.50
2018-02-21T09:10:15.065Z,8.50
2018-02-21T09:12:43.382Z,8.67
2018-02-21T09:15:10.915Z,8.30
2018-02-21T09:17:38.458Z,8.10
2018-02-21T09:20:06.767Z,8.37
2018-02-21T09:22:34.327Z,7.53
2018-02-21T09:25:01.871Z,8.20
2018-02-21T09:27:29.437Z,8.50
2018-02-21T09:29:56.977Z,8.10
2018-02-21T09:32:25.305Z,7.50
2018-02-21T09:34:52.840Z,8.83
2018-02-21T09:37:20.387Z,7.53
2018-02-21T09:39:47.928Z,18.73
2018-02-21T09:42:16.267Z,19.97
2018-02-21T09:44:43.806Z,20.50
2018-02-21T09:47:11.360Z,19.90
2018-02-21T09:49:38.921Z,19.83
2018-02-21T09:52:06.456Z,17.60
2018-02-21T09:54:34.810Z,19.10
2018-02-21T09:57:02.341Z,17.63
2018-02-21T09:59:29.909Z,16.93
2018-02-21T10:01:57.456Z,17.53
2018-02-21T10:04:25.016Z,17.40
2018-02-21T10:06:52.559Z,18.20
2018-02-21T10:09:20.121Z,19.47
2018-02-21T10:11:47.662Z,17.53
2018-02-21T10:14:16.866Z,16.93
2018-02-21T10:16:44.425Z,18.53
2018-02-21T10:19:12.000Z,18.40
2018-02-21T10:21:39.539Z,19.60
2018-02-21T10:24:07.863Z,17.20
2018-02-21T10:26:35.404Z,17.07
2018-02-21T10:29:02.974Z,16.40
2018-02-21T10:31:30.516Z,16.83
2018-02-21T10:33:58.092Z,16.53
2018-02-21T10:36:25.631Z,18.00
2018-02-21T10:38:53.945Z,15.93
2018-02-21T10:41:21.499Z,16.27
2018-02-21T10:43:49.036Z,14.93
2018-02-21T10:46:16.587Z,15.90
2018-02-21T10:48:44.949Z,15.90
2018-02-21T10:51:12.504Z,15.90
2018-02-21T10:53:40.036Z,13.70
2018-02-21T10:56:07.600Z,14.97
2018-02-21T10:58:35.133Z,15.03
2018-02-21T11:01:08.250Z,14.07
2018-02-21T11:03:35.812Z,15.00
2018-02-21T11:06:03.367Z,13.30
2018-02-21T11:08:30.906Z,12.60
2018-02-21T11:10:58.541Z,12.53
2018-02-21T11:13:26.052Z,12.53
2018-02-21T11:15:53.601Z,12.30
2018-02-21T11:18:21.149Z,13.70
2018-02-21T11:20:48.700Z,12.20
2018-02-21T11:23:16.260Z,10.47
2018-02-21T11:25:43.805Z,10.57
2018-02-21T11:28:12.127Z,10.53
2018-02-21T11:30:39.680Z,9.80
2018-02-21T11:33:07.239Z,10.70
2018-02-21T11:35:34.790Z,11.33
2018-02-21T11:38:02.351Z,10.60
2018-02-21T11:40:29.908Z,10.80
2018-02-21T11:42:57.465Z,11.43
2018-02-21T11:45:24.994Z,11.10
2018-02-21T11:47:53.314Z,11.80
2018-02-21T11:50:20.847Z,10.77
2018-02-21T11:52:49.172Z,11.77
2018-02-21T11:55:16.714Z,11.30
2018-02-21T11:57:44.311Z,8.70
2018-02-21T12:00:11.818Z,9.33
2018-02-21T12:02:39.395Z,9.83
2018-02-21T12:05:06.945Z,11.27
2018-02-21T12:07:34.475Z,9.87
2018-02-21T12:10:02.794Z,10.87
2018-02-21T12:12:30.335Z,10.40
2018-02-21T12:14:57.898Z,10.27
2018-02-21T12:17:25.455Z,10.83
2018-02-21T12:19:53.002Z,11.97
2018-02-21T12:22:21.306Z,11.90
2018-02-21T12:24:48.875Z,11.60
2018-02-21T12:27:16.425Z,10.17
2018-02-21T12:29:43.984Z,11.33
2018-02-21T12:32:17.903Z,11.27
2018-02-21T12:34:45.509Z,12.27
2018-02-21T12:37:13.062Z,12.70
2018-02-21T12:39:40.619Z,11.60
2018-02-21T12:42:08.173Z,11.97
2018-02-21T12:44:35.730Z,11.60
2018-02-21T12:47:04.097Z,11.37
2018-02-21T12:49:31.668Z,10.97
2018-02-21T12:51:59.203Z,11.93
2018-02-21T12:54:26.739Z,9.83
2018-02-21T12:56:55.055Z,11.10
2018-02-21T12:59:22.723Z,10.37
2018-02-21T13:01:50.292Z,10.47
2018-02-21T13:04:17.824Z,9.90
2018-02-21T13:06:45.375Z,11.17
2018-02-21T13:09:12.919Z,9.53
2018-02-21T13:11:41.239Z,9.73
2018-02-21T13:14:08.790Z,10.00
2018-02-21T13:16:36.357Z,9.63
2018-02-21T13:19:03.907Z,9.97
2018-02-21T13:21:31.474Z,9.97
2018-02-21T13:23:59.013Z,10.33
2018-02-21T13:26:27.352Z,9.77
2018-02-21T13:28:54.883Z,9.10
2018-02-21T13:31:22.429Z,10.37
2018-02-21T13:33:49.993Z,9.17
2018-02-21T13:36:17.531Z,9.10
2018-02-21T13:38:45.091Z,9.47
2018-02-21T13:41:13.397Z,8.47
2018-02-21T13:43:40.947Z,9.63
2018-02-21T13:46:08.480Z,9.63
2018-02-21T13:48:36.790Z,8.63
2018-02-21T13:51:04.331Z,8.80
2018-02-21T13:53:31.902Z,9.27
2018-02-21T13:55:59.428Z,8.47
2018-02-21T13:58:27.754Z,9.00
2018-02-21T14:00:55.287Z,7.63
2018-02-21T14:03:22.835Z,8.30
2018-02-21T14:05:51.128Z,8.60
2018-02-21T14:08:18.667Z,8.67
2018-02-21T14:10:46.993Z,8.37
2018-02-21T14:13:14.532Z,9.40
2018-02-21T14:15:42.082Z,9.80
2018-02-21T14:18:09.624Z,7.63
2018-02-21T14:20:37.231Z,9.60
2018-02-21T14:23:04.757Z,9.00
2018-02-21T14:25:33.068Z,8.77
2018-02-21T14:28:00.615Z,9.63
2018-02-21T14:30:28.177Z,8.90
2018-02-21T14:32:55.703Z,8.57
2018-02-21T14:35:23.283Z,8.80
2018-02-21T14:37:52.149Z,7.93
2018-02-21T14:40:21.084Z,9.20
2018-02-21T14:42:49.962Z,9.20
2018-02-21T14:45:18.861Z,8.73
2018-02-21T14:47:47.773Z,9.90
2018-02-21T14:50:16.693Z,10.03
2018-02-21T14:52:45.590Z,8.17
2018-02-21T14:55:14.483Z,8.10
2018-02-21T14:57:43.378Z,8.70
2018-02-21T15:00:12.266Z,8.80
2018-02-21T15:02:41.163Z,8.50
2018-02-21T15:05:10.044Z,8.90
2018-02-21T15:07:38.962Z,9.17
2018-02-21T15:10:07.838Z,8.30
2018-02-21T15:12:36.735Z,9.87
2018-02-21T15:15:05.623Z,8.50
2018-02-21T15:17:34.562Z,9.20
2018-02-21T15:20:03.447Z,8.17
2018-02-21T15:22:32.347Z,9.23
2018-02-21T15:25:01.238Z,8.83
2018-02-21T15:27:30.127Z,8.70
2018-02-21T15:29:59.031Z,9.67
2018-02-21T15:32:27.933Z,8.70
2018-02-21T15:34:56.838Z,9.10
2018-02-21T15:37:25.731Z,9.10
2018-02-21T15:39:54.639Z,9.13
2018-02-21T15:42:23.535Z,9.20
2018-02-21T15:44:52.441Z,8.77
2018-02-21T15:47:21.319Z,8.20
2018-02-21T15:49:50.233Z,8.60
2018-02-21T15:52:19.123Z,8.50
2018-02-21T15:54:48.029Z,8.00
2018-02-21T15:57:16.974Z,7.50
2018-02-21T15:59:45.902Z,9.40
2018-02-21T16:02:14.788Z,8.93
2018-02-21T16:04:43.683Z,7.93
2018-02-21T16:07:12.578Z,8.90
2018-02-21T16:09:41.462Z,8.40
2018-02-21T16:12:10.358Z,8.63
2018-02-21T16:14:39.237Z,8.70
2018-02-21T16:17:08.141Z,8.50
2018-02-21T16:19:37.031Z,9.23
2018-02-21T16:22:05.944Z,8.77
2018-02-21T16:24:34.849Z,9.53
2018-02-21T16:27:03.755Z,8.60
2018-02-21T16:29:32.661Z,9.83
2018-02-21T16:32:01.555Z,8.97
2018-02-21T16:34:30.451Z,8.60
2018-02-21T16:36:59.346Z,8.67
2018-02-21T16:39:28.218Z,8.33
2018-02-21T16:41:57.133Z,8.83
2018-02-21T16:44:26.010Z,9.00
2018-02-21T16:46:54.932Z,9.10
2018-02-21T16:49:23.854Z,9.10
2018-02-21T16:51:52.754Z,8.57
2018-02-21T16:54:22.560Z,9.57
2018-02-21T16:56:51.463Z,9.50
2018-02-21T16:59:20.345Z,8.40
2018-02-21T17:01:49.249Z,10.27
2018-02-21T17:04:18.142Z,8.93
2018-02-21T17:06:47.036Z,8.87
2018-02-21T17:09:15.948Z,9.73
2018-02-21T17:11:44.826Z,8.97
2018-02-21T17:14:13.732Z,10.90
2018-02-21T17:16:42.621Z,10.20
2018-02-21T17:19:11.536Z,9.30
2018-02-21T17:21:40.418Z,9.90
2018-02-21T17:24:09.338Z,10.97
2018-02-21T17:26:38.228Z,10.07
2018-02-21T17:29:07.136Z,9.90
2018-02-21T17:31:36.025Z,9.83
2018-02-21T17:34:04.923Z,10.70
2018-02-21T17:36:33.814Z,10.40
2018-02-21T17:39:02.724Z,9.80
2018-02-21T17:41:32.395Z,10.30
2018-02-21T17:44:01.350Z,10.23
2018-02-21T17:46:30.214Z,10.50
2018-02-21T17:48:59.123Z,11.50
2018-02-21T17:51:28.007Z,11.13
2018-02-21T17:53:56.906Z,10.00
2018-02-21T17:56:25.794Z,10.90
2018-02-21T17:58:54.724Z,11.27
2018-02-21T18:01:23.626Z,11.37
2018-02-21T18:03:52.518Z,11.27
2018-02-21T18:06:21.424Z,12.20
2018-02-21T18:08:50.307Z,10.90
2018-02-21T18:11:19.224Z,10.43
2018-02-21T18:13:48.124Z,11.83
2018-02-21T18:16:17.047Z,11.97
2018-02-21T18:18:45.934Z,11.30
2018-02-21T18:21:20.474Z,11.87
2018-02-21T18:23:49.358Z,11.80
2018-02-21T18:26:18.253Z,12.20
2018-02-21T18:28:47.143Z,11.60
2018-02-21T18:31:16.039Z,11.80
2018-02-21T18:33:44.927Z,11.17
2018-02-21T18:36:13.829Z,12.87
2018-02-21T18:38:42.714Z,13.33
2018-02-21T18:41:11.623Z,11.60
2018-02-21T18:43:40.510Z,13.50
2018-02-21T18:46:09.427Z,12.07
2018-02-21T18:48:38.321Z,12.20
2018-02-21T18:51:07.207Z,11.70
2018-02-21T18:53:36.116Z,11.30
2018-02-21T18:56:05.040Z,12.93
2018-02-21T18:58:33.949Z,13.50
2018-02-21T19:01:02.849Z,12.43
2018-02-21T19:03:31.769Z,12.67
2018-02-21T19:06:00.659Z,12.73
2018-02-21T19:08:29.563Z,12.27
2018-02-21T19:10:58.446Z,12.40
2018-02-21T19:13:27.342Z,12.90
2018-02-21T19:15:56.230Z,12.40
2018-02-21T19:18:25.127Z,13.80
2018-02-21T19:20:54.003Z,10.90
2018-02-21T19:23:22.914Z,13.00
2018-02-21T19:25:51.798Z,12.27
2018-02-21T19:28:20.698Z,11.07
2018-02-21T19:30:49.579Z,11.80
2018-02-21T19:33:18.511Z,12.20
2018-02-21T19:35:47.404Z,12.30
2018-02-21T19:38:16.290Z,12.43
2018-02-21T19:40:45.191Z,11.33
2018-02-21T19:43:14.081Z,11.13
2018-02-21T19:45:42.996Z,11.90
2018-02-21T19:48:11.889Z,11.67
2018-02-21T19:50:40.785Z,11.33
2018-02-21T19:53:09.693Z,12.00
2018-02-21T19:55:38.590Z,11.30
2018-02-21T19:58:07.471Z,11.67
2018-02-21T20:00:36.370Z,11.80
2018-02-21T20:03:05.259Z,11.80
2018-02-21T20:05:34.162Z,12.13
2018-02-21T20:08:03.039Z,11.70
2018-02-21T20:10:31.948Z,10.77
2018-02-21T20:13:00.842Z,10.67
2018-02-21T20:15:29.766Z,12.07
2018-02-21T20:17:58.654Z,12.43
2018-02-21T20:20:27.550Z,11.70
2018-02-21T20:22:56.443Z,11.03
2018-02-21T20:25:25.330Z,11.40
2018-02-21T20:27:54.238Z,11.00
2018-02-21T20:30:23.128Z,12.50
2018-02-21T20:32:52.031Z,11.30
2018-02-21T20:35:20.918Z,11.40
2018-02-21T20:37:49.818Z,10.83
2018-02-21T20:40:18.708Z,11.80
2018-02-21T20:42:47.613Z,11.60
2018-02-21T20:45:16.501Z,11.30
2018-02-21T20:47:45.404Z,9.80
2018-02-21T20:50:14.290Z,10.83
2018-02-21T20:52:43.188Z,9.77
2018-02-21T20:55:12.075Z,11.33
2018-02-21T20:57:41.075Z,11.50
2018-02-21T21:00:09.972Z,10.30
2018-02-21T21:02:38.872Z,10.40
2018-02-21T21:05:07.861Z,10.60
2018-02-21T21:07:36.780Z,11.10
2018-02-21T21:10:05.658Z,10.43
2018-02-21T21:12:34.587Z,10.97
2018-02-21T21:15:03.474Z,10.90
2018-02-21T21:17:32.364Z,9.80
2018-02-21T21:20:01.272Z,9.87
2018-02-21T21:22:30.200Z,11.17
2018-02-21T21:24:59.136Z,10.93
2018-02-21T21:27:28.057Z,10.57
2018-02-21T21:29:56.955Z,10.40
2018-02-21T21:32:25.838Z,10.90
2018-02-21T21:34:54.726Z,9.83
2018-02-21T21:37:23.613Z,10.23
2018-02-21T21:39:52.521Z,9.37
2018-02-21T21:42:21.413Z,9.53
2018-02-21T21:44:50.405Z,9.60
2018-02-21T21:47:19.291Z,10.33
2018-02-21T21:49:48.187Z,10.23
2018-02-21T21:52:17.066Z,9.50
2018-02-21T21:54:45.954Z,9.73
2018-02-21T21:57:14.865Z,10.23
2018-02-21T21:59:43.755Z,9.70
2018-02-21T22:02:12.667Z,9.77
2018-02-21T22:04:41.614Z,9.10
2018-02-21T22:07:10.534Z,9.30
2018-02-21T22:09:39.417Z,10.10
2018-02-21T22:12:08.306Z,9.00
2018-02-21T22:14:37.187Z,9.10
2018-02-21T22:17:06.091Z,10.33
2018-02-21T22:19:35.013Z,11.30
2018-02-21T22:22:03.907Z,10.47
2018-02-21T22:24:32.798Z,9.07
2018-02-21T22:27:01.719Z,10.03
2018-02-21T22:29:30.614Z,9.50
2018-02-21T22:32:00.279Z,10.03
2018-02-21T22:34:29.189Z,10.10
2018-02-21T22:36:58.099Z,10.23
2018-02-21T22:39:27.033Z,9.90
2018-02-21T22:41:55.929Z,9.93
2018-02-21T22:44:24.834Z,10.87
2018-02-21T22:46:53.717Z,9.63
2018-02-21T22:49:22.614Z,10.17
2018-02-21T22:51:51.552Z,9.17
2018-02-21T22:54:20.456Z,9.60
2018-02-21T22:56:49.339Z,9.07
2018-02-21T22:59:18.264Z,9.63
2018-02-21T23:01:47.168Z,10.37
2018-02-21T23:04:16.093Z,10.27
2018-02-21T23:06:45.002Z,9.97
2018-02-21T23:09:14.185Z,9.60
2018-02-21T23:11:43.070Z,9.20
2018-02-21T23:14:12.083Z,9.47
2018-02-21T23:16:40.956Z,10.40
2018-02-21T23:19:09.834Z,10.47
2018-02-21T23:21:38.750Z,10.40
2018-02-21T23:24:07.648Z,11.40
2018-02-21T23:26:36.849Z,9.60
2018-02-21T23:29:05.741Z,9.37
2018-02-21T23:31:34.652Z,9.37
2018-02-21T23:34:03.542Z,10.00
2018-02-21T23:36:32.439Z,9.77
2018-02-21T23:39:01.317Z,9.40
2018-02-21T23:41:30.256Z,10.53
2018-02-21T23:43:59.150Z,9.90
2018-02-21T23:46:28.107Z,10.17
2018-02-21T23:48:56.996Z,10.40
2018-02-21T23:51:25.898Z,9.80
2018-02-21T23:53:54.790Z,9.80
2018-02-21T23:56:23.666Z,9.70
2018-02-21T23:58:52.584Z,10.03
